^^
Station Historical Data
Daily Summary for November 13, 2017 Units:  Metric    English   Both
« Previous Day
Next Day »
Daily Weekly Monthly Yearly Custom
  High: Low: Average:
Temperature: 29.8 °C 14.1 °C 18.9 °C
Dew Point: 8.2 °C 0.6 °C 6 °C
Humidity: 60% 16% 46%
Wind Speed: 35.2km/h 3.2km/h 15.6km/h
Wind Gust: 41.8km/h - -
Wind- - SSW
Pressure: 1009.7 hPa 1005 hPa -
Precipitation: 0 mm    
Historical Graphs
 
 
Tabular Data for November 13, 2017
Time Temperature Dew Point Pressure Wind Wind Speed Wind Gust Humidity Rainfall Rate (Hourly) solar Conditions
00:00 17.8 °C 6.3 °C 1009 hPa SSW 17.7 km/h 17.7 km/h 47% 0 mm 0.0 W/m2
00:10 17.7 °C 6.5 °C 1009 hPa SSW 14.3 km/h 17.7 km/h 48% 0 mm 0.0 W/m2
00:16 17.6 °C 6.5 °C 1008.7 hPa SSW 14.3 km/h 16.1 km/h 48% 0 mm 0.0 W/m2
00:21 17.6 °C 6.5 °C 1008.7 hPa SSW 9.7 km/h 16.1 km/h 48% 0 mm 0.0 W/m2
00:26 17.5 °C 6.4 °C 1008.7 hPa SSW 11.1 km/h 17.7 km/h 48% 0 mm 0.0 W/m2
00:36 17.4 °C 6.6 °C 1008.7 hPa SSW 13 km/h 19.3 km/h 49% 0 mm 0.0 W/m2
00:46 17.3 °C 6.5 °C 1008.7 hPa SSW 14.3 km/h 16.1 km/h 49% 0 mm 0.0 W/m2
00:56 17.2 °C 6.4 °C 1008.4 hPa SW 14.3 km/h 16.1 km/h 49% 0 mm 0.0 W/m2
01:01 17.1 °C 6.3 °C 1008.4 hPa SW 7.9 km/h 11.3 km/h 49% 0 mm 0.0 W/m2
01:06 17.1 °C 6 °C 1008.4 hPa SW 7.9 km/h 11.3 km/h 48% 0 mm 0.0 W/m2
01:16 16.9 °C 6.1 °C 1008.4 hPa SW 7.9 km/h 11.3 km/h 49% 0 mm 0.0 W/m2
01:26 16.9 °C 6.1 °C 1008 hPa SW 7.9 km/h 9.7 km/h 49% 0 mm 0.0 W/m2
01:31 16.9 °C 6.1 °C 1008 hPa SW 7.9 km/h 8 km/h 49% 0 mm 0.0 W/m2
01:37 16.8 °C 6 °C 1007.7 hPa SW 7.9 km/h 8 km/h 49% 0 mm 0.0 W/m2
01:42 16.7 °C 5.9 °C 1007.7 hPa SW 6.4 km/h 8 km/h 49% 0 mm 0.0 W/m2
01:47 16.6 °C 5.8 °C 1007.3 hPa SW 6.4 km/h 9.7 km/h 49% 0 mm 0.0 W/m2
01:52 16.6 °C 5.8 °C 1007.3 hPa SW 9.7 km/h 9.7 km/h 49% 0 mm 0.0 W/m2
01:57 16.6 °C 6.1 °C 1007.3 hPa SW 14.3 km/h 16.1 km/h 50% 0 mm 0.0 W/m2
02:02 16.6 °C 5.8 °C 1007.3 hPa SW 13 km/h 16.1 km/h 49% 0 mm 0.0 W/m2
02:07 16.6 °C 5.8 °C 1007 hPa SW 13 km/h 16.1 km/h 49% 0 mm 0.0 W/m2
02:12 16.6 °C 5.8 °C 1007 hPa WSW 7.9 km/h 14.5 km/h 49% 0 mm 0.0 W/m2
02:22 16.5 °C 5.7 °C 1007 hPa SW 9.7 km/h 12.9 km/h 49% 0 mm 0.0 W/m2
02:27 16.5 °C 5.7 °C 1007 hPa SW 16.3 km/h 16.3 km/h 49% 0 mm 0.0 W/m2
02:37 16.4 °C 5.9 °C 1007 hPa SW 13 km/h 19.3 km/h 50% 0 mm 0.0 W/m2
02:52 16.3 °C 6.4 °C 1006.7 hPa SW 14.3 km/h 17.7 km/h 52% 0 mm 0.0 W/m2
02:57 16.2 °C 6.3 °C 1007 hPa SW 7.9 km/h 17.7 km/h 52% 0 mm 0.0 W/m2
03:03 16.2 °C 6.3 °C 1006.7 hPa SW 16.3 km/h 22.5 km/h 52% 0 mm 0.0 W/m2
03:08 16.1 °C 6.5 °C 1007 hPa SSW 24.1 km/h 24.1 km/h 53% 0 mm 0.0 W/m2
03:13 16 °C 6.7 °C 1007 hPa SW 25.9 km/h 25.9 km/h 54% 0 mm 0.0 W/m2
03:18 15.9 °C 6.6 °C 1007 hPa SW 20.9 km/h 25.7 km/h 54% 0 mm 0.0 W/m2
03:23 15.9 °C 6.6 °C 1007 hPa SW 19.5 km/h 24.1 km/h 54% 0 mm 0.0 W/m2
03:28 15.8 °C 6.5 °C 1007 hPa SSW 17.7 km/h 20.9 km/h 54% 0 mm 0.0 W/m2
03:33 15.8 °C 6.5 °C 1007 hPa SW 14.3 km/h 19.3 km/h 54% 0 mm 0.0 W/m2
03:38 15.7 °C 6.7 °C 1007 hPa SW 16.3 km/h 19.3 km/h 55% 0 mm 0.0 W/m2
03:43 15.6 °C 6.3 °C 1007.3 hPa SW 17.7 km/h 17.7 km/h 54% 0 mm 0.0 W/m2
03:48 15.6 °C 6.6 °C 1007.3 hPa SW 17.7 km/h 20.9 km/h 55% 0 mm 0.0 W/m2
03:58 15.5 °C 6.5 °C 1007.3 hPa SW 19.5 km/h 20.9 km/h 55% 0 mm 0.0 W/m2
04:08 15.5 °C 6.2 °C 1007.3 hPa SSW 16.3 km/h 17.7 km/h 54% 0 mm 0.0 W/m2
04:14 15.5 °C 6.2 °C 1007.3 hPa SW 11.1 km/h 14.5 km/h 54% 0 mm 0.0 W/m2
04:19 15.4 °C 6.1 °C 1007.7 hPa SW 11.1 km/h 11.3 km/h 54% 0 mm 0.0 W/m2
04:24 15.3 °C 6.3 °C 1007.7 hPa SW 4.7 km/h 11.3 km/h 55% 0 mm 0.0 W/m2
04:29 15.2 °C 6.2 °C 1007.7 hPa SW 9.7 km/h 14.5 km/h 55% 0 mm 0.0 W/m2
04:39 15.1 °C 6.4 °C 1007.7 hPa SW 6.4 km/h 9.7 km/h 56% 0 mm 0.0 W/m2
04:54 14.8 °C 6.4 °C 1007.7 hPa SW 3.2 km/h 8 km/h 57% 0 mm 0.0 W/m2
05:00 14.8 °C 6.4 °C 1007.7 hPa SW 4.7 km/h 8 km/h 57% 0 mm 0.0 W/m2
05:04 14.7 °C 6.3 °C 1007.7 hPa SW 4.7 km/h 8 km/h 57% 0 mm 0.0 W/m2
05:09 14.7 °C 6.3 °C 1008 hPa SW 3.2 km/h 6.4 km/h 57% 0 mm 0.0 W/m2
05:17 14.7 °C 6.3 °C 1008 hPa SW 6.4 km/h 8 km/h 57% 0 mm 0.0 W/m2
06:06 14.1 °C 6.5 °C 1008.7 hPa SW 9.7 km/h 12.9 km/h 60% 0 mm 16.0 W/m2
06:11 14.1 °C 6.5 °C 1008.7 hPa SW 9.7 km/h 11.3 km/h 60% 0 mm 19.0 W/m2
06:16 14.2 °C 6.5 °C 1008.7 hPa SW 11.1 km/h 12.9 km/h 60% 0 mm 18.0 W/m2
06:21 14.2 °C 6.5 °C 1008.7 hPa SW 11.1 km/h 14.5 km/h 60% 0 mm 33.0 W/m2
06:26 14.3 °C 6.6 °C 1009 hPa SW 13 km/h 16.1 km/h 60% 0 mm 54.0 W/m2
06:31 14.5 °C 6.6 °C 1009 hPa SSW 11.1 km/h 14.5 km/h 59% 0 mm 69.0 W/m2
06:38 14.7 °C 6.8 °C 1009 hPa SSW 11.1 km/h 14.5 km/h 59% 0 mm 88.0 W/m2
06:47 15.1 °C 6.6 °C 1009 hPa SSW 11.1 km/h 17.7 km/h 57% 0 mm 125.0 W/m2
07:02 15.2 °C 6.7 °C 1009 hPa South 16.3 km/h 20.9 km/h 57% 0 mm 186.0 W/m2
07:07 15.3 °C 7.1 °C 1009 hPa South 17.7 km/h 19.3 km/h 58% 0 mm 207.0 W/m2
07:12 15.2 °C 7 °C 1009 hPa South 11.1 km/h 20.9 km/h 58% 0 mm 230.0 W/m2
07:17 15.2 °C 7 °C 1009 hPa South 11.1 km/h 20.9 km/h 58% 0 mm 230.0 W/m2
07:22 15.4 °C 6.7 °C 1009 hPa SSW 14.3 km/h 22.5 km/h 56% 0 mm 267.0 W/m2
07:37 15.8 °C 7.3 °C 1009 hPa SW 17.7 km/h 20.9 km/h 57% 0 mm 320.0 W/m2
08:03 16.1 °C 7.1 °C 1009.4 hPa SW 16.3 km/h 22.5 km/h 55% 0 mm 383.0 W/m2
08:17 16.5 °C 7.2 °C 1009.7 hPa SW 13 km/h 17.7 km/h 54% 0 mm 443.0 W/m2
08:22 16.8 °C 7.2 °C 1009.4 hPa SW 14.3 km/h 19.3 km/h 53% 0 mm 480.0 W/m2
08:47 17.3 °C 7.3 °C 1009.4 hPa SW 16.3 km/h 19.3 km/h 52% 0 mm 548.0 W/m2
08:58 17.7 °C 7.4 °C 1009.7 hPa SW 14.3 km/h 22.5 km/h 51% 0 mm 580.0 W/m2
09:07 18.1 °C 7.5 °C 1009.4 hPa SW 11.1 km/h 19.3 km/h 50% 0 mm 613.0 W/m2
09:16 18.2 °C 7.3 °C 1009.4 hPa SW 14.3 km/h 17.7 km/h 49% 0 mm 642.0 W/m2
09:25 18.8 °C 7.6 °C 1009.4 hPa SW 19.5 km/h 20.9 km/h 48% 0 mm 675.0 W/m2
09:35 19.2 °C 7 °C 1009.4 hPa SW 13 km/h 20.9 km/h 45% 0 mm 705.0 W/m2
09:43 19.8 °C 7.5 °C 1009.4 hPa SSW 20.9 km/h 22.5 km/h 45% 0 mm 733.0 W/m2
12:40 25.7 °C 3 °C 1008 hPa SW 11.1 km/h 14.5 km/h 23% 0 mm 977.0 W/m2
12:49 26.3 °C 2.2 °C 1008 hPa SW 11.1 km/h 16.1 km/h 21% 0 mm 977.0 W/m2
13:10 26.9 °C 2 °C 1007.7 hPa SW 6.4 km/h 16.1 km/h 20% 0 mm 970.0 W/m2
13:25 27.3 °C 1.7 °C 1007.7 hPa SW 9.7 km/h 19.3 km/h 19% 0 mm 960.0 W/m2
13:35 27.7 °C 2 °C 1007.3 hPa SW 11.1 km/h 17.7 km/h 19% 0 mm 951.0 W/m2
13:49 27.8 °C 1.3 °C 1007 hPa SW 11.1 km/h 16.1 km/h 18% 0 mm 930.0 W/m2
14:18 28.6 °C 1.2 °C 1006.7 hPa SW 9.7 km/h 16.1 km/h 17% 0 mm 891.0 W/m2
14:26 29 °C 0.6 °C 1006.3 hPa SSW 13 km/h 27.4 km/h 16% 0 mm 863.0 W/m2
14:46 29.7 °C 1.2 °C 1006 hPa South 19.5 km/h 20.9 km/h 16% 0 mm 819.0 W/m2
15:06 29.4 °C 1 °C 1005.6 hPa SSW 16.3 km/h 24.1 km/h 16% 0 mm 777.0 W/m2
15:28 29.8 °C 2.9 °C 1005.6 hPa SSW 20.9 km/h 30.6 km/h 18% 0 mm 763.0 W/m2
15:36 29.2 °C 3.2 °C 1005 hPa South 22.7 km/h 30.6 km/h 19% 0 mm 459.0 W/m2
15:51 28.8 °C 2.9 °C 1005 hPa SSW 19.5 km/h 29 km/h 19% 0 mm 327.0 W/m2
16:11 29.1 °C 3.9 °C 1005 hPa South 20.9 km/h 29 km/h 20% 0 mm 784.0 W/m2
16:31 28.3 °C 4.5 °C 1005 hPa SSW 35.2 km/h 37 km/h 22% 0 mm 617.0 W/m2
17:06 28.2 °C 5.1 °C 1005 hPa SW 35.2 km/h 35.4 km/h 23% 0 mm 457.0 W/m2
17:25 27.2 °C 4.9 °C 1005 hPa SSW 22.7 km/h 29 km/h 24% 0 mm 237.0 W/m2
17:45 27.2 °C 4.9 °C 1005 hPa South 30.6 km/h 30.6 km/h 24% 0 mm 397.0 W/m2
17:57 26.6 °C 4.4 °C 1005.3 hPa South 28.8 km/h 41.8 km/h 24% 0 mm 230.0 W/m2
18:05 26.6 °C 4.4 °C 1005.3 hPa South 28.8 km/h 41.8 km/h 24% 0 mm 230.0 W/m2
18:25 26.1 °C 5.1 °C 1005.6 hPa SSW 22.7 km/h 29 km/h 26% 0 mm 135.0 W/m2
18:37 24.9 °C 6.1 °C 1005.6 hPa SSW 24.1 km/h 33.8 km/h 30% 0 mm 65.0 W/m2
19:05 23.5 °C 7.2 °C 1006 hPa SSW 20.9 km/h 30.6 km/h 35% 0 mm 14.0 W/m2
19:51 21.7 °C 7.5 °C 1006.7 hPa SSW 19.5 km/h 25.7 km/h 40% 0 mm 0.0 W/m2
20:03 21.5 °C 7.7 °C 1007 hPa South 25.9 km/h 29 km/h 41% 0 mm 0.0 W/m2
20:15 21.2 °C 7.8 °C 1007.3 hPa SSW 25.9 km/h 27.4 km/h 42% 0 mm 0.0 W/m2
20:27 20.9 °C 7.9 °C 1007.3 hPa SSW 22.7 km/h 25.7 km/h 43% 0 mm 0.0 W/m2
20:52 20 °C 7.4 °C 1007.7 hPa SSW 30.6 km/h 35.4 km/h 44% 0 mm 0.0 W/m2
21:08 19.4 °C 7.5 °C 1008 hPa South 30.6 km/h 38.6 km/h 46% 0 mm 0.0 W/m2
21:23 18.9 °C 7.6 °C 1008 hPa South 19.5 km/h 32.2 km/h 48% 0 mm 0.0 W/m2
21:51 17.9 °C 7.9 °C 1008.7 hPa South 25.9 km/h 33.8 km/h 52% 0 mm 0.0 W/m2
21:59 17.5 °C 7.8 °C 1008.7 hPa SSW 25.9 km/h 32.2 km/h 53% 0 mm 0.0 W/m2
22:09 17.3 °C 7.9 °C 1009 hPa South 30.6 km/h 30.6 km/h 54% 0 mm 0.0 W/m2
22:19 17 °C 8.2 °C 1009 hPa South 22.7 km/h 30.6 km/h 56% 0 mm 0.0 W/m2
22:24 16.8 °C 8 °C 1008.7 hPa South 22.7 km/h 30.6 km/h 56% 0 mm 0.0 W/m2
22:30 16.7 °C 7.9 °C 1008.7 hPa SSW 19.5 km/h 30.6 km/h 56% 0 mm 0.0 W/m2
22:39 16.6 °C 8 °C 1009 hPa SSW 20.9 km/h 25.7 km/h 57% 0 mm 0.0 W/m2
Canyon Roadhouse, Fishriver Canyon, Namibia
Compliments of Weather Underground - 2.25 mb